createdAt,value
2022-10-26T00:01:17.906Z,19.33
2022-10-26T00:03:46.794Z,19.42
2022-10-26T00:06:21.933Z,17.65
2022-10-26T00:08:49.693Z,21.88
2022-10-26T00:11:18.928Z,20.90
2022-10-26T00:13:47.857Z,20.42
2022-10-26T00:16:26.408Z,18.77
2022-10-26T00:18:54.527Z,18.58
2022-10-26T00:21:21.830Z,20.38
2022-10-26T00:23:49.213Z,18.17
2022-10-26T00:26:18.008Z,18.75
2022-10-26T00:28:45.433Z,18.42
2022-10-26T00:31:16.257Z,18.15
2022-10-26T00:33:43.968Z,16.08
2022-10-26T00:36:14.022Z,17.38
2022-10-26T00:38:46.013Z,14.52
2022-10-26T00:41:20.205Z,13.98
2022-10-26T00:43:48.443Z,12.38
2022-10-26T00:46:37.786Z,13.05
2022-10-26T00:49:15.194Z,15.02
2022-10-26T00:51:50.699Z,13.32
2022-10-26T00:54:21.254Z,16.48
2022-10-26T00:56:55.350Z,17.17
2022-10-26T00:59:24.225Z,16.85
2022-10-26T01:01:53.121Z,18.15
2022-10-26T01:04:20.910Z,16.83
2022-10-26T01:06:49.901Z,14.80
2022-10-26T01:09:20.378Z,12.75
2022-10-26T01:11:47.587Z,16.02
2022-10-26T01:14:19.435Z,18.02
2022-10-26T01:17:24.164Z,18.63
2022-10-26T01:20:25.515Z,18.80
2022-10-26T01:23:05.903Z,18.58
2022-10-26T01:25:49.644Z,17.50
2022-10-26T01:29:06.029Z,16.45
2022-10-26T01:31:56.977Z,16.45
2022-10-26T01:34:50.629Z,16.27
2022-10-26T01:37:27.754Z,15.60
2022-10-26T01:40:50.633Z,14.88
2022-10-26T01:43:21.096Z,17.05
2022-10-26T01:45:50.488Z,17.33
2022-10-26T01:48:23.898Z,16.90
2022-10-26T01:50:55.352Z,18.17
2022-10-26T01:53:22.875Z,17.85
2022-10-26T01:55:55.337Z,14.32
2022-10-26T01:58:53.157Z,15.40
2022-10-26T02:01:32.277Z,16.65
2022-10-26T02:04:38.469Z,16.45
2022-10-26T02:07:23.336Z,14.38
2022-10-26T02:10:24.881Z,15.60
2022-10-26T02:13:29.125Z,15.18
2022-10-26T02:16:40.985Z,14.40
2022-10-26T02:19:24.851Z,14.63
2022-10-26T02:22:02.577Z,13.70
2022-10-26T02:24:32.311Z,14.27
2022-10-26T02:27:04.575Z,13.35
2022-10-26T02:29:34.657Z,11.57
2022-10-26T02:32:04.773Z,14.45
2022-10-26T02:34:37.654Z,14.15
2022-10-26T02:37:07.381Z,15.25
2022-10-26T02:39:37.939Z,14.48
2022-10-26T02:42:09.357Z,13.15
2022-10-26T02:45:05.130Z,13.30
2022-10-26T02:47:34.097Z,13.88
2022-10-26T02:50:02.082Z,12.90
2022-10-26T02:53:05.549Z,15.35
2022-10-26T02:55:44.216Z,13.27
2022-10-26T02:58:24.061Z,14.50
2022-10-26T03:00:53.079Z,15.27
2022-10-26T03:03:21.568Z,13.75
2022-10-26T03:05:49.918Z,13.68
2022-10-26T03:08:17.561Z,14.48
2022-10-26T03:10:46.334Z,13.27
2022-10-26T03:13:14.668Z,14.48
2022-10-26T03:15:42.139Z,13.43
2022-10-26T03:18:09.578Z,13.00
2022-10-26T03:20:36.970Z,14.05
2022-10-26T03:23:04.467Z,12.85
2022-10-26T03:25:31.676Z,11.88
2022-10-26T03:28:04.337Z,15.40
2022-10-26T03:30:32.176Z,14.40
2022-10-26T03:32:59.536Z,16.67
2022-10-26T03:35:26.726Z,17.23
2022-10-26T03:37:54.916Z,17.77
2022-10-26T03:40:22.056Z,17.02
2022-10-26T03:42:49.808Z,17.58
2022-10-26T03:45:17.376Z,19.60
2022-10-26T03:47:49.534Z,18.70
2022-10-26T03:50:20.704Z,17.42
2022-10-26T03:52:50.435Z,16.48
2022-10-26T03:55:17.865Z,17.00
2022-10-26T03:57:46.302Z,17.65
2022-10-26T04:00:17.594Z,17.17
2022-10-26T04:02:53.396Z,16.38
2022-10-26T04:05:20.728Z,16.92
2022-10-26T04:07:56.604Z,15.40
2022-10-26T04:10:25.765Z,17.48
2022-10-26T04:12:54.705Z,18.17
2022-10-26T04:15:23.563Z,17.33
2022-10-26T04:18:02.401Z,17.73
2022-10-26T04:20:32.753Z,17.38
2022-10-26T04:23:03.279Z,16.40
2022-10-26T04:25:33.259Z,15.10
2022-10-26T04:28:03.977Z,15.07
2022-10-26T04:30:32.546Z,16.50
2022-10-26T04:33:00.715Z,19.38
2022-10-26T04:35:28.405Z,16.77
2022-10-26T04:38:05.230Z,17.85
2022-10-26T04:40:34.705Z,18.38
2022-10-26T04:43:02.553Z,20.50
2022-10-26T04:45:31.151Z,18.38
2022-10-26T04:48:06.580Z,17.63
2022-10-26T04:50:34.967Z,17.25
2022-10-26T04:53:03.018Z,16.35
2022-10-26T04:55:30.187Z,19.27
2022-10-26T04:58:00.349Z,16.42
2022-10-26T05:00:30.359Z,14.65
2022-10-26T05:03:03.279Z,17.52
2022-10-26T05:05:33.446Z,15.18
2022-10-26T05:08:01.125Z,17.13
2022-10-26T05:10:29.265Z,14.55
2022-10-26T05:13:00.176Z,17.48
2022-10-26T05:15:28.447Z,15.18
2022-10-26T05:18:06.087Z,13.82
2022-10-26T05:20:36.049Z,16.67
2022-10-26T05:23:12.270Z,13.95
2022-10-26T05:25:39.798Z,14.82
2022-10-26T05:28:14.955Z,12.55
2022-10-26T05:30:44.937Z,14.32
2022-10-26T05:33:14.668Z,13.18
2022-10-26T05:35:42.400Z,12.52
2022-10-26T05:38:14.019Z,16.27
2022-10-26T05:40:53.168Z,12.52
2022-10-26T05:43:23.181Z,13.98
2022-10-26T05:45:51.633Z,15.77
2022-10-26T05:48:19.436Z,15.93
2022-10-26T05:50:46.904Z,14.48
2022-10-26T05:53:14.343Z,14.80
2022-10-26T05:55:42.260Z,15.27
2022-10-26T05:58:13.176Z,15.85
2022-10-26T06:00:56.381Z,15.05
2022-10-26T06:03:49.189Z,14.32
2022-10-26T06:06:16.736Z,14.43
2022-10-26T06:08:44.657Z,15.23
2022-10-26T06:11:12.407Z,16.60
2022-10-26T06:13:40.401Z,16.63
2022-10-26T06:16:25.831Z,16.40
2022-10-26T06:19:36.389Z,14.73
2022-10-26T06:22:43.204Z,16.70
2022-10-26T06:25:41.200Z,15.88
2022-10-26T06:28:43.997Z,15.15
2022-10-26T06:31:14.697Z,15.18
2022-10-26T06:33:42.427Z,14.32
2022-10-26T06:36:27.027Z,15.85
2022-10-26T06:39:08.946Z,13.68
2022-10-26T06:41:37.780Z,13.38
2022-10-26T06:44:06.277Z,13.00
2022-10-26T06:47:04.734Z,14.80
2022-10-26T06:49:40.488Z,12.95
2022-10-26T06:52:07.769Z,13.60
2022-10-26T06:54:54.687Z,15.88
2022-10-26T06:57:28.306Z,15.27
2022-10-26T07:00:21.558Z,13.88
2022-10-26T07:02:50.404Z,14.90
2022-10-26T07:05:18.498Z,14.60
2022-10-26T07:07:48.666Z,14.05
2022-10-26T07:10:16.580Z,13.02
2022-10-26T07:12:44.393Z,12.30
2022-10-26T07:15:12.338Z,12.43
2022-10-26T07:17:48.749Z,12.50
2022-10-26T07:20:19.407Z,11.30
2022-10-26T07:22:53.164Z,10.00
2022-10-26T07:25:21.163Z,10.70
2022-10-26T07:27:48.777Z,12.50
2022-10-26T07:30:16.507Z,11.80
2022-10-26T07:32:44.401Z,9.70
2022-10-26T07:35:11.819Z,10.98
2022-10-26T07:37:39.220Z,11.20
2022-10-26T07:40:26.259Z,10.43
2022-10-26T07:42:57.385Z,10.48
2022-10-26T07:45:26.690Z,10.57
2022-10-26T07:47:54.109Z,9.45
2022-10-26T07:50:21.799Z,9.15
2022-10-26T07:52:49.438Z,8.32
2022-10-26T07:55:17.082Z,6.80
2022-10-26T07:57:44.432Z,7.75
2022-10-26T08:00:12.725Z,7.38
2022-10-26T08:02:40.234Z,7.15
2022-10-26T08:05:08.152Z,6.88
2022-10-26T08:07:43.190Z,7.07
2022-10-26T08:10:12.757Z,6.25
2022-10-26T08:12:41.410Z,6.57
2022-10-26T08:15:09.654Z,6.22
2022-10-26T08:17:37.082Z,5.72
2022-10-26T08:20:04.879Z,5.22
2022-10-26T08:22:32.551Z,5.25
2022-10-26T08:24:59.731Z,5.68
2022-10-26T08:27:27.171Z,5.60
2022-10-26T08:29:54.420Z,5.43
2022-10-26T08:32:21.730Z,4.93
2022-10-26T08:34:48.905Z,4.80
2022-10-26T08:37:16.358Z,4.30
2022-10-26T08:39:43.615Z,4.28
2022-10-26T08:42:19.549Z,3.90
2022-10-26T08:44:51.457Z,4.50
2022-10-26T08:47:29.772Z,4.32
2022-10-26T08:50:18.191Z,4.50
2022-10-26T08:52:55.701Z,3.97
2022-10-26T08:55:34.780Z,3.90
2022-10-26T08:58:10.947Z,4.05
2022-10-26T09:00:39.363Z,4.03
2022-10-26T09:03:15.520Z,3.50
2022-10-26T09:06:39.934Z,3.00
2022-10-26T09:09:45.875Z,3.00
2022-10-26T09:13:13.436Z,3.30
2022-10-26T09:16:16.220Z,3.25
2022-10-26T09:19:19.769Z,3.80
2022-10-26T09:22:24.219Z,3.40
2022-10-26T09:24:55.331Z,3.47
2022-10-26T09:27:37.961Z,3.25
2022-10-26T09:30:20.826Z,3.45
2022-10-26T09:32:51.002Z,3.08
2022-10-26T09:35:26.176Z,3.42
2022-10-26T09:38:04.252Z,3.30
2022-10-26T09:40:39.069Z,4.97
2022-10-26T09:43:16.938Z,4.57
2022-10-26T09:45:52.124Z,3.72
2022-10-26T09:48:51.534Z,4.10
2022-10-26T09:51:18.892Z,3.90
2022-10-26T09:53:48.502Z,4.50
2022-10-26T09:56:18.011Z,4.25
2022-10-26T09:58:53.611Z,4.00
2022-10-26T10:01:35.692Z,4.20
2022-10-26T10:04:13.057Z,4.88
2022-10-26T10:06:41.396Z,4.95
2022-10-26T10:09:22.864Z,4.07
2022-10-26T10:12:03.946Z,3.58
2022-10-26T10:14:56.410Z,2.97
2022-10-26T10:17:25.387Z,3.08
2022-10-26T10:19:53.161Z,3.08
2022-10-26T10:22:25.798Z,4.63
2022-10-26T10:25:02.524Z,2.75
2022-10-26T10:27:31.798Z,3.00
2022-10-26T10:30:27.506Z,2.42
2022-10-26T10:33:15.237Z,2.83
2022-10-26T10:35:52.761Z,2.80
2022-10-26T10:38:22.055Z,3.30
2022-10-26T10:40:53.886Z,2.58
2022-10-26T10:43:22.355Z,2.47
2022-10-26T10:45:57.181Z,2.20
2022-10-26T10:48:29.548Z,2.10
2022-10-26T10:51:12.621Z,2.38
2022-10-26T10:53:59.494Z,2.38
2022-10-26T10:56:38.334Z,2.08
2022-10-26T10:59:35.680Z,1.85
2022-10-26T11:02:42.720Z,1.77
2022-10-26T11:05:39.671Z,4.75
2022-10-26T11:08:32.201Z,3.63
2022-10-26T11:11:33.676Z,3.40
2022-10-26T11:14:04.113Z,2.65
2022-10-26T11:16:52.349Z,2.45
2022-10-26T11:19:32.847Z,1.80
2022-10-26T11:22:02.491Z,3.67
2022-10-26T11:24:45.935Z,2.30
2022-10-26T11:27:29.350Z,4.60
2022-10-26T11:30:20.652Z,1.88
2022-10-26T11:33:02.544Z,1.95
2022-10-26T11:35:50.872Z,9.02
2022-10-26T11:38:56.897Z,2.40
2022-10-26T11:41:50.056Z,1.42
2022-10-26T11:44:52.767Z,1.65
2022-10-26T11:47:36.157Z,2.28
2022-10-26T11:50:30.808Z,2.00
2022-10-26T11:53:22.030Z,1.40
2022-10-26T11:55:55.459Z,6.68
2022-10-26T11:58:27.716Z,5.18
2022-10-26T12:01:03.109Z,2.00
2022-10-26T12:03:45.576Z,1.80
2022-10-26T12:06:20.673Z,1.38
2022-10-26T12:09:20.541Z,1.65
2022-10-26T12:11:59.339Z,1.27
2022-10-26T12:14:51.632Z,0.90
2022-10-26T12:17:57.019Z,1.30
2022-10-26T12:20:36.420Z,1.70
2022-10-26T12:23:06.082Z,4.30
2022-10-26T12:25:33.477Z,1.60
2022-10-26T12:28:00.659Z,1.38
2022-10-26T12:30:34.915Z,1.52
2022-10-26T12:33:30.517Z,1.60
2022-10-26T12:35:58.723Z,1.50
2022-10-26T12:38:29.052Z,1.58
2022-10-26T12:41:09.915Z,1.88
2022-10-26T12:43:41.764Z,1.60
2022-10-26T12:46:15.008Z,1.50
2022-10-26T12:48:51.268Z,2.10
2022-10-26T12:51:27.062Z,2.35
2022-10-26T12:54:41.897Z,2.65
2022-10-26T12:57:37.733Z,2.25
2022-10-26T13:00:12.927Z,4.38
2022-10-26T13:03:12.978Z,10.77
2022-10-26T13:06:29.134Z,3.50
2022-10-26T13:09:00.797Z,1.77
2022-10-26T13:11:46.163Z,2.03
2022-10-26T13:14:48.646Z,1.30
2022-10-26T13:17:31.686Z,1.55
2022-10-26T13:20:04.206Z,1.80
2022-10-26T13:22:32.808Z,1.42
2022-10-26T13:25:06.518Z,2.08
2022-10-26T13:27:33.583Z,2.13
2022-10-26T13:30:03.663Z,30.70
2022-10-26T13:32:40.386Z,2.53
2022-10-26T13:35:14.586Z,1.83
2022-10-26T13:37:50.281Z,2.30
2022-10-26T13:40:23.033Z,11.25
2022-10-26T13:42:58.160Z,1.60
2022-10-26T13:45:56.697Z,1.60
2022-10-26T13:48:41.926Z,1.38
2022-10-26T13:51:25.122Z,1.67
2022-10-26T13:54:02.862Z,1.65
2022-10-26T13:56:55.612Z,1.50
2022-10-26T13:59:26.053Z,1.70
2022-10-26T14:02:26.341Z,1.70
2022-10-26T14:05:01.218Z,1.73
2022-10-26T14:07:54.089Z,1.52
2022-10-26T14:10:52.139Z,13.80
2022-10-26T14:13:27.784Z,11.90
2022-10-26T14:15:59.814Z,2.13
2022-10-26T14:18:31.147Z,1.70
2022-10-26T14:21:06.416Z,1.35
2022-10-26T14:23:46.773Z,1.70
2022-10-26T14:26:27.839Z,1.40
2022-10-26T14:29:01.481Z,1.52
2022-10-26T14:31:32.350Z,1.63
2022-10-26T14:34:04.335Z,1.58
2022-10-26T14:36:43.312Z,16.88
2022-10-26T14:39:43.861Z,13.88
2022-10-26T14:42:39.493Z,4.65
2022-10-26T14:45:47.566Z,2.72
2022-10-26T14:48:34.014Z,2.03
2022-10-26T14:51:11.368Z,2.10
2022-10-26T14:53:41.518Z,2.70
2022-10-26T14:56:48.194Z,2.55
2022-10-26T14:59:32.175Z,3.00
2022-10-26T15:02:11.544Z,1.95
2022-10-26T15:04:42.183Z,1.83
2022-10-26T15:07:12.671Z,1.77
2022-10-26T15:09:49.636Z,1.95
2022-10-26T15:12:30.027Z,2.35
2022-10-26T15:18:00.123Z,2.75
2022-10-26T15:20:29.912Z,11.98
2022-10-26T15:23:03.649Z,15.15
2022-10-26T15:25:35.599Z,4.95
2022-10-26T15:28:43.415Z,4.20
2022-10-26T15:31:10.535Z,4.82
2022-10-26T15:33:53.309Z,3.45
2022-10-26T15:36:28.493Z,3.58
2022-10-26T15:38:56.003Z,3.40
2022-10-26T15:41:37.749Z,3.38
2022-10-26T15:44:16.975Z,4.45
2022-10-26T15:46:45.960Z,4.60
2022-10-26T15:49:20.697Z,4.95
2022-10-26T15:51:49.541Z,5.68
2022-10-26T15:54:17.002Z,4.05
2022-10-26T15:56:44.908Z,4.10
2022-10-26T15:59:19.033Z,3.25
2022-10-26T16:01:46.482Z,3.30
2022-10-26T16:04:14.158Z,3.00
2022-10-26T16:06:42.690Z,2.63
2022-10-26T16:09:17.872Z,2.00
2022-10-26T16:11:45.641Z,2.50
2022-10-26T16:14:13.257Z,2.38
2022-10-26T16:16:41.346Z,2.65
2022-10-26T16:19:30.752Z,2.28
2022-10-26T16:21:57.955Z,2.10
2022-10-26T16:24:27.534Z,2.13
2022-10-26T16:26:55.592Z,2.85
2022-10-26T16:29:23.987Z,4.00
2022-10-26T16:31:51.263Z,3.22
2022-10-26T16:34:18.779Z,2.90
2022-10-26T16:36:46.043Z,2.42
2022-10-26T16:39:14.622Z,2.08
2022-10-26T16:41:41.956Z,2.30
2022-10-26T16:44:13.631Z,3.30
2022-10-26T16:46:40.881Z,3.78
2022-10-26T16:49:08.650Z,3.25
2022-10-26T16:51:35.927Z,3.00
2022-10-26T16:54:03.527Z,2.90
2022-10-26T16:56:30.901Z,2.92
2022-10-26T16:58:58.465Z,2.75
2022-10-26T17:01:26.065Z,3.38
2022-10-26T17:03:53.922Z,3.53
2022-10-26T17:06:22.083Z,3.22
2022-10-26T17:08:49.627Z,3.45
2022-10-26T17:11:20.606Z,3.50
2022-10-26T17:13:52.753Z,4.28
2022-10-26T17:16:23.631Z,3.80
2022-10-26T17:18:52.234Z,3.35
2022-10-26T17:21:35.493Z,3.45
2022-10-26T17:24:03.976Z,2.80
2022-10-26T17:26:31.213Z,3.53
2022-10-26T17:28:59.007Z,4.80
2022-10-26T17:31:26.507Z,3.40
2022-10-26T17:33:54.331Z,3.38
2022-10-26T17:36:23.593Z,2.60
2022-10-26T17:38:54.169Z,3.20
2022-10-26T17:41:22.835Z,3.20
2022-10-26T17:43:51.330Z,2.80
2022-10-26T17:46:23.851Z,3.65
2022-10-26T17:49:00.418Z,4.85
2022-10-26T17:51:30.528Z,3.40
2022-10-26T17:54:01.365Z,11.25
2022-10-26T17:56:32.448Z,19.35
2022-10-26T17:59:06.211Z,15.18
2022-10-26T18:01:33.639Z,10.50
2022-10-26T18:04:01.927Z,9.45
2022-10-26T18:06:29.124Z,9.70
2022-10-26T18:08:57.875Z,9.07
2022-10-26T18:11:27.115Z,9.48
2022-10-26T18:13:56.646Z,8.52
2022-10-26T18:16:27.230Z,8.05
2022-10-26T18:19:04.485Z,9.02
2022-10-26T18:21:39.240Z,9.63
2022-10-26T18:24:09.147Z,9.02
2022-10-26T18:26:36.947Z,10.05
2022-10-26T18:29:05.715Z,10.15
2022-10-26T18:31:37.561Z,9.35
2022-10-26T18:34:06.887Z,7.82
2022-10-26T18:39:03.313Z,6.50
2022-10-26T18:41:30.508Z,6.20
2022-10-26T18:43:59.627Z,7.18
2022-10-26T18:46:33.556Z,8.52
2022-10-26T18:49:01.248Z,9.43
2022-10-26T18:51:34.741Z,9.40
2022-10-26T18:54:03.658Z,11.25
2022-10-26T18:56:30.915Z,11.88
2022-10-26T18:59:00.500Z,11.57
2022-10-26T19:01:39.569Z,10.85
2022-10-26T19:04:10.423Z,11.95
2022-10-26T19:06:46.574Z,12.15
2022-10-26T19:09:17.463Z,12.40
2022-10-26T19:11:45.907Z,14.18
2022-10-26T19:14:14.217Z,14.27
2022-10-26T19:16:46.871Z,12.80
2022-10-26T19:19:17.958Z,13.18
2022-10-26T19:21:49.859Z,15.13
2022-10-26T19:24:22.469Z,14.32
2022-10-26T19:26:51.403Z,17.27
2022-10-26T19:29:20.433Z,15.00
2022-10-26T19:31:51.857Z,15.63
2022-10-26T19:34:19.589Z,16.42
2022-10-26T19:36:47.702Z,16.35
2022-10-26T19:39:18.661Z,16.38
2022-10-26T19:41:46.806Z,18.50
2022-10-26T19:44:15.820Z,16.55
2022-10-26T19:46:43.964Z,18.45
2022-10-26T19:49:17.626Z,17.95
2022-10-26T19:51:44.829Z,15.45
2022-10-26T19:54:12.219Z,15.35
2022-10-26T19:56:39.564Z,15.00
2022-10-26T19:59:08.267Z,14.88
2022-10-26T20:01:35.754Z,15.52
2022-10-26T20:04:05.039Z,16.90
2022-10-26T20:06:32.612Z,15.52
2022-10-26T20:09:00.330Z,16.83
2022-10-26T20:11:28.116Z,15.32
2022-10-26T20:13:56.541Z,19.13
2022-10-26T20:16:25.237Z,19.88
2022-10-26T20:18:52.746Z,17.73
2022-10-26T20:21:20.442Z,15.50
2022-10-26T20:23:47.993Z,17.50
2022-10-26T20:26:18.739Z,17.08
2022-10-26T20:28:53.651Z,21.95
2022-10-26T20:31:20.982Z,16.25
2022-10-26T20:33:54.424Z,23.52
2022-10-26T20:36:22.420Z,17.45
2022-10-26T20:38:50.813Z,19.00
2022-10-26T20:41:18.721Z,18.80
2022-10-26T20:43:46.952Z,18.17
2022-10-26T20:46:32.610Z,20.05
2022-10-26T20:49:00.458Z,19.50
2022-10-26T20:52:29.699Z,20.48
2022-10-26T20:55:45.445Z,17.75
2022-10-26T20:58:20.950Z,18.67
2022-10-26T21:00:59.695Z,18.15
2022-10-26T21:03:28.465Z,19.23
2022-10-26T21:05:56.503Z,17.23
2022-10-26T21:08:23.971Z,18.27
2022-10-26T21:10:52.532Z,17.90
2022-10-26T21:13:19.761Z,18.48
2022-10-26T21:15:47.152Z,19.42
2022-10-26T21:18:14.304Z,18.05
2022-10-26T21:20:41.638Z,19.85
2022-10-26T21:23:08.811Z,18.55
2022-10-26T21:25:39.386Z,17.50
2022-10-26T21:28:09.427Z,17.88
2022-10-26T21:30:36.777Z,17.15
2022-10-26T21:33:04.071Z,17.70
2022-10-26T21:35:31.494Z,18.08
2022-10-26T21:37:58.664Z,17.08
2022-10-26T21:40:26.166Z,17.80
2022-10-26T21:42:53.655Z,18.60
2022-10-26T21:45:21.945Z,16.80
2022-10-26T21:47:55.332Z,17.95
2022-10-26T21:50:22.611Z,17.33
2022-10-26T21:52:53.609Z,18.00
2022-10-26T21:55:21.011Z,18.83
2022-10-26T21:57:48.190Z,16.80
2022-10-26T22:00:16.197Z,18.05
2022-10-26T22:02:43.392Z,16.88
2022-10-26T22:05:10.723Z,15.82
2022-10-26T22:07:37.871Z,17.50
2022-10-26T22:10:13.407Z,16.40
2022-10-26T22:12:40.571Z,17.70
2022-10-26T22:15:08.650Z,17.73
2022-10-26T22:17:40.195Z,17.40
2022-10-26T22:20:10.762Z,19.00
2022-10-26T22:22:38.368Z,18.73
2022-10-26T22:25:07.073Z,16.50
2022-10-26T22:27:34.321Z,17.02
2022-10-26T22:30:01.605Z,18.38
2022-10-26T22:32:28.801Z,18.10
2022-10-26T22:35:10.516Z,18.35
2022-10-26T22:37:46.363Z,18.52
2022-10-26T22:40:13.780Z,18.50
2022-10-26T22:42:40.879Z,17.25
2022-10-26T22:45:08.884Z,17.80
2022-10-26T22:51:14.143Z,18.30
2022-10-26T22:53:42.489Z,18.25
2022-10-26T22:56:12.814Z,17.65
2022-10-26T22:58:41.207Z,19.52
2022-10-26T23:01:18.258Z,18.27
2022-10-26T23:03:45.979Z,19.08
2022-10-26T23:06:17.117Z,20.70
2022-10-26T23:08:44.904Z,18.40
2022-10-26T23:11:18.813Z,19.25
2022-10-26T23:13:46.937Z,21.02
2022-10-26T23:16:18.183Z,18.20
2022-10-26T23:18:45.841Z,18.80
2022-10-26T23:21:14.680Z,19.67
2022-10-26T23:23:42.648Z,20.00
2022-10-26T23:26:21.674Z,18.90
2022-10-26T23:28:50.389Z,20.52
2022-10-26T23:31:23.700Z,19.95
2022-10-26T23:33:55.111Z,20.85
2022-10-26T23:36:22.961Z,21.15
2022-10-26T23:38:50.309Z,20.90
2022-10-26T23:41:17.581Z,22.00
2022-10-26T23:43:45.158Z,22.02
2022-10-26T23:46:12.439Z,22.00
2022-10-26T23:48:39.846Z,21.85
2022-10-26T23:51:07.105Z,21.95
2022-10-26T23:53:35.226Z,22.35
2022-10-26T23:56:02.793Z,21.35
2022-10-26T23:58:30.976Z,22.48
